sensor_id;sensor_type;location;lat;lon;timestamp;P1;durP1;ratioP1;P2;durP2;ratioP2
71108;SDS011;59614;51.012;-1.648;2023-04-15T00:01:26;5.72;;;3.80;;
71108;SDS011;59614;51.012;-1.648;2023-04-15T00:03:53;5.80;;;3.67;;
71108;SDS011;59614;51.012;-1.648;2023-04-15T00:06:19;5.80;;;3.80;;
71108;SDS011;59614;51.012;-1.648;2023-04-15T00:08:45;6.43;;;3.67;;
71108;SDS011;59614;51.012;-1.648;2023-04-15T00:11:11;5.95;;;3.90;;
71108;SDS011;59614;51.012;-1.648;2023-04-15T00:13:38;5.75;;;3.80;;
71108;SDS011;59614;51.012;-1.648;2023-04-15T00:16:04;6.22;;;4.30;;
71108;SDS011;59614;51.012;-1.648;2023-04-15T00:18:30;7.45;;;4.60;;
71108;SDS011;59614;51.012;-1.648;2023-04-15T00:20:56;6.65;;;4.18;;
71108;SDS011;59614;51.012;-1.648;2023-04-15T00:23:22;7.32;;;4.63;;
71108;SDS011;59614;51.012;-1.648;2023-04-15T00:25:48;12.20;;;4.78;;
71108;SDS011;59614;51.012;-1.648;2023-04-15T00:28:13;8.63;;;5.03;;
71108;SDS011;59614;51.012;-1.648;2023-04-15T00:30:39;7.68;;;4.70;;
71108;SDS011;59614;51.012;-1.648;2023-04-15T00:33:04;10.60;;;4.65;;
71108;SDS011;59614;51.012;-1.648;2023-04-15T00:35:30;6.68;;;4.47;;
71108;SDS011;59614;51.012;-1.648;2023-04-15T00:37:57;7.95;;;4.75;;
71108;SDS011;59614;51.012;-1.648;2023-04-15T00:40:23;7.05;;;4.68;;
71108;SDS011;59614;51.012;-1.648;2023-04-15T00:42:49;9.75;;;4.80;;
71108;SDS011;59614;51.012;-1.648;2023-04-15T00:45:14;8.73;;;4.50;;
71108;SDS011;59614;51.012;-1.648;2023-04-15T00:47:40;7.05;;;4.47;;
71108;SDS011;59614;51.012;-1.648;2023-04-15T00:50:07;5.60;;;3.80;;
71108;SDS011;59614;51.012;-1.648;2023-04-15T00:52:33;12.45;;;4.55;;
71108;SDS011;59614;51.012;-1.648;2023-04-15T00:54:59;8.75;;;4.20;;
71108;SDS011;59614;51.012;-1.648;2023-04-15T00:57:25;8.55;;;4.55;;
71108;SDS011;59614;51.012;-1.648;2023-04-15T00:59:52;6.95;;;3.83;;
71108;SDS011;59614;51.012;-1.648;2023-04-15T01:02:20;7.07;;;3.63;;
71108;SDS011;59614;51.012;-1.648;2023-04-15T01:04:46;5.88;;;3.47;;
71108;SDS011;59614;51.012;-1.648;2023-04-15T01:07:12;6.28;;;3.80;;
71108;SDS011;59614;51.012;-1.648;2023-04-15T01:09:37;5.55;;;3.13;;
71108;SDS011;59614;51.012;-1.648;2023-04-15T01:12:03;7.03;;;3.70;;
71108;SDS011;59614;51.012;-1.648;2023-04-15T01:14:29;7.72;;;4.15;;
71108;SDS011;59614;51.012;-1.648;2023-04-15T01:16:55;9.60;;;4.47;;
71108;SDS011;59614;51.012;-1.648;2023-04-15T01:19:21;10.25;;;4.97;;
71108;SDS011;59614;51.012;-1.648;2023-04-15T01:21:47;7.68;;;4.80;;
71108;SDS011;59614;51.012;-1.648;2023-04-15T01:24:12;9.63;;;5.70;;
71108;SDS011;59614;51.012;-1.648;2023-04-15T01:26:42;9.23;;;5.60;;
71108;SDS011;59614;51.012;-1.648;2023-04-15T01:29:07;9.48;;;5.82;;
71108;SDS011;59614;51.012;-1.648;2023-04-15T01:31:33;11.90;;;6.15;;
71108;SDS011;59614;51.012;-1.648;2023-04-15T01:33:59;11.70;;;6.57;;
71108;SDS011;59614;51.012;-1.648;2023-04-15T01:36:25;12.98;;;6.80;;
71108;SDS011;59614;51.012;-1.648;2023-04-15T01:38:50;10.52;;;6.70;;
71108;SDS011;59614;51.012;-1.648;2023-04-15T01:41:17;13.00;;;7.10;;
71108;SDS011;59614;51.012;-1.648;2023-04-15T01:43:47;13.32;;;7.30;;
71108;SDS011;59614;51.012;-1.648;2023-04-15T01:46:13;12.45;;;7.35;;
71108;SDS011;59614;51.012;-1.648;2023-04-15T01:48:38;14.93;;;7.25;;
71108;SDS011;59614;51.012;-1.648;2023-04-15T01:51:03;12.50;;;7.60;;
71108;SDS011;59614;51.012;-1.648;2023-04-15T01:53:29;11.02;;;7.00;;
71108;SDS011;59614;51.012;-1.648;2023-04-15T01:55:55;14.02;;;7.32;;
71108;SDS011;59614;51.012;-1.648;2023-04-15T01:58:21;11.55;;;7.28;;
71108;SDS011;59614;51.012;-1.648;2023-04-15T02:00:46;11.57;;;7.10;;
71108;SDS011;59614;51.012;-1.648;2023-04-15T02:03:12;14.75;;;7.18;;
71108;SDS011;59614;51.012;-1.648;2023-04-15T02:05:37;10.10;;;6.40;;
71108;SDS011;59614;51.012;-1.648;2023-04-15T02:08:03;9.52;;;6.25;;
71108;SDS011;59614;51.012;-1.648;2023-04-15T02:10:28;10.35;;;6.97;;
71108;SDS011;59614;51.012;-1.648;2023-04-15T02:12:54;10.77;;;7.20;;
71108;SDS011;59614;51.012;-1.648;2023-04-15T02:15:20;15.30;;;7.93;;
71108;SDS011;59614;51.012;-1.648;2023-04-15T02:17:45;14.75;;;8.00;;
71108;SDS011;59614;51.012;-1.648;2023-04-15T02:20:15;17.10;;;8.80;;
71108;SDS011;59614;51.012;-1.648;2023-04-15T02:22:45;13.82;;;7.75;;
71108;SDS011;59614;51.012;-1.648;2023-04-15T02:25:11;16.45;;;8.82;;
71108;SDS011;59614;51.012;-1.648;2023-04-15T02:27:36;17.50;;;9.20;;
71108;SDS011;59614;51.012;-1.648;2023-04-15T02:30:02;15.05;;;9.05;;
71108;SDS011;59614;51.012;-1.648;2023-04-15T02:32:28;16.35;;;9.18;;
71108;SDS011;59614;51.012;-1.648;2023-04-15T02:34:53;17.30;;;9.45;;
71108;SDS011;59614;51.012;-1.648;2023-04-15T02:37:19;18.05;;;9.73;;
71108;SDS011;59614;51.012;-1.648;2023-04-15T02:39:45;15.80;;;9.35;;
71108;SDS011;59614;51.012;-1.648;2023-04-15T02:42:10;13.70;;;9.15;;
71108;SDS011;59614;51.012;-1.648;2023-04-15T02:44:37;15.82;;;10.27;;
71108;SDS011;59614;51.012;-1.648;2023-04-15T02:47:02;19.98;;;9.70;;
71108;SDS011;59614;51.012;-1.648;2023-04-15T02:49:30;19.33;;;10.07;;
71108;SDS011;59614;51.012;-1.648;2023-04-15T02:51:55;15.20;;;9.63;;
71108;SDS011;59614;51.012;-1.648;2023-04-15T02:54:22;15.32;;;9.75;;
71108;SDS011;59614;51.012;-1.648;2023-04-15T02:56:47;18.88;;;9.63;;
71108;SDS011;59614;51.012;-1.648;2023-04-15T02:59:14;15.80;;;9.48;;
71108;SDS011;59614;51.012;-1.648;2023-04-15T03:01:39;14.98;;;9.57;;
71108;SDS011;59614;51.012;-1.648;2023-04-15T03:04:05;16.13;;;9.00;;
71108;SDS011;59614;51.012;-1.648;2023-04-15T03:06:32;16.85;;;9.57;;
71108;SDS011;59614;51.012;-1.648;2023-04-15T03:08:58;16.08;;;8.70;;
71108;SDS011;59614;51.012;-1.648;2023-04-15T03:11:24;16.15;;;9.93;;
71108;SDS011;59614;51.012;-1.648;2023-04-15T03:13:51;18.67;;;9.73;;
71108;SDS011;59614;51.012;-1.648;2023-04-15T03:16:17;14.98;;;9.15;;
71108;SDS011;59614;51.012;-1.648;2023-04-15T03:18:42;17.27;;;10.05;;
71108;SDS011;59614;51.012;-1.648;2023-04-15T03:21:08;18.10;;;10.40;;
71108;SDS011;59614;51.012;-1.648;2023-04-15T03:23:33;15.30;;;9.50;;
71108;SDS011;59614;51.012;-1.648;2023-04-15T03:26:02;13.98;;;9.68;;
71108;SDS011;59614;51.012;-1.648;2023-04-15T03:28:28;15.15;;;8.95;;
71108;SDS011;59614;51.012;-1.648;2023-04-15T03:30:54;16.67;;;10.07;;
71108;SDS011;59614;51.012;-1.648;2023-04-15T03:33:20;15.90;;;10.63;;
71108;SDS011;59614;51.012;-1.648;2023-04-15T03:35:45;16.25;;;10.20;;
71108;SDS011;59614;51.012;-1.648;2023-04-15T03:38:10;14.48;;;9.55;;
71108;SDS011;59614;51.012;-1.648;2023-04-15T03:40:37;21.05;;;10.10;;
71108;SDS011;59614;51.012;-1.648;2023-04-15T03:43:05;18.65;;;10.63;;
71108;SDS011;59614;51.012;-1.648;2023-04-15T03:45:31;15.48;;;10.00;;
71108;SDS011;59614;51.012;-1.648;2023-04-15T03:47:56;16.85;;;9.38;;
71108;SDS011;59614;51.012;-1.648;2023-04-15T03:50:22;17.08;;;10.10;;
71108;SDS011;59614;51.012;-1.648;2023-04-15T03:52:47;17.83;;;10.10;;
71108;SDS011;59614;51.012;-1.648;2023-04-15T03:55:13;15.10;;;9.85;;
71108;SDS011;59614;51.012;-1.648;2023-04-15T03:57:39;15.77;;;10.02;;
71108;SDS011;59614;51.012;-1.648;2023-04-15T04:00:05;14.57;;;9.07;;
71108;SDS011;59614;51.012;-1.648;2023-04-15T04:02:31;17.27;;;8.98;;
71108;SDS011;59614;51.012;-1.648;2023-04-15T04:04:56;16.05;;;9.50;;
71108;SDS011;59614;51.012;-1.648;2023-04-15T04:07:22;13.45;;;9.07;;
71108;SDS011;59614;51.012;-1.648;2023-04-15T04:09:48;15.48;;;9.27;;
71108;SDS011;59614;51.012;-1.648;2023-04-15T04:12:14;16.90;;;8.90;;
71108;SDS011;59614;51.012;-1.648;2023-04-15T04:14:40;14.63;;;9.23;;
71108;SDS011;59614;51.012;-1.648;2023-04-15T04:17:05;14.65;;;9.30;;
71108;SDS011;59614;51.012;-1.648;2023-04-15T04:19:30;14.60;;;9.60;;
71108;SDS011;59614;51.012;-1.648;2023-04-15T04:21:56;17.05;;;8.77;;
71108;SDS011;59614;51.012;-1.648;2023-04-15T04:24:21;12.90;;;8.50;;
71108;SDS011;59614;51.012;-1.648;2023-04-15T04:26:47;13.52;;;8.85;;
71108;SDS011;59614;51.012;-1.648;2023-04-15T04:29:12;16.15;;;8.88;;
71108;SDS011;59614;51.012;-1.648;2023-04-15T04:31:38;15.05;;;8.80;;
71108;SDS011;59614;51.012;-1.648;2023-04-15T04:34:03;14.20;;;8.75;;
71108;SDS011;59614;51.012;-1.648;2023-04-15T04:36:29;15.68;;;9.15;;
71108;SDS011;59614;51.012;-1.648;2023-04-15T04:38:54;12.50;;;8.43;;
71108;SDS011;59614;51.012;-1.648;2023-04-15T04:41:20;14.90;;;9.05;;
71108;SDS011;59614;51.012;-1.648;2023-04-15T04:43:45;16.90;;;8.45;;
71108;SDS011;59614;51.012;-1.648;2023-04-15T04:46:11;15.23;;;9.02;;
71108;SDS011;59614;51.012;-1.648;2023-04-15T04:48:36;15.23;;;8.75;;
71108;SDS011;59614;51.012;-1.648;2023-04-15T04:51:02;17.40;;;9.15;;
71108;SDS011;59614;51.012;-1.648;2023-04-15T04:53:27;17.75;;;8.07;;
71108;SDS011;59614;51.012;-1.648;2023-04-15T04:55:53;15.43;;;8.85;;
71108;SDS011;59614;51.012;-1.648;2023-04-15T04:58:18;15.45;;;8.85;;
71108;SDS011;59614;51.012;-1.648;2023-04-15T05:00:44;17.10;;;8.00;;
71108;SDS011;59614;51.012;-1.648;2023-04-15T05:03:10;15.48;;;8.73;;
71108;SDS011;59614;51.012;-1.648;2023-04-15T05:05:35;16.85;;;8.63;;
71108;SDS011;59614;51.012;-1.648;2023-04-15T05:08:03;13.25;;;8.93;;
71108;SDS011;59614;51.012;-1.648;2023-04-15T05:10:29;13.02;;;8.07;;
71108;SDS011;59614;51.012;-1.648;2023-04-15T05:12:55;11.75;;;8.50;;
71108;SDS011;59614;51.012;-1.648;2023-04-15T05:15:20;15.90;;;8.63;;
71108;SDS011;59614;51.012;-1.648;2023-04-15T05:17:46;13.82;;;8.50;;
71108;SDS011;59614;51.012;-1.648;2023-04-15T05:20:11;13.43;;;9.70;;
71108;SDS011;59614;51.012;-1.648;2023-04-15T05:22:37;14.23;;;8.90;;
71108;SDS011;59614;51.012;-1.648;2023-04-15T05:25:03;15.70;;;9.43;;
71108;SDS011;59614;51.012;-1.648;2023-04-15T05:27:29;14.50;;;8.70;;
71108;SDS011;59614;51.012;-1.648;2023-04-15T05:29:54;12.80;;;8.98;;
71108;SDS011;59614;51.012;-1.648;2023-04-15T05:32:20;15.77;;;9.13;;
71108;SDS011;59614;51.012;-1.648;2023-04-15T05:34:46;21.20;;;10.27;;
71108;SDS011;59614;51.012;-1.648;2023-04-15T05:37:11;15.30;;;9.43;;
71108;SDS011;59614;51.012;-1.648;2023-04-15T05:39:37;12.90;;;8.93;;
71108;SDS011;59614;51.012;-1.648;2023-04-15T05:42:02;17.60;;;9.60;;
71108;SDS011;59614;51.012;-1.648;2023-04-15T05:44:29;13.77;;;8.93;;
71108;SDS011;59614;51.012;-1.648;2023-04-15T05:46:55;13.80;;;8.85;;
71108;SDS011;59614;51.012;-1.648;2023-04-15T05:49:20;17.48;;;8.95;;
71108;SDS011;59614;51.012;-1.648;2023-04-15T05:51:46;17.80;;;8.45;;
71108;SDS011;59614;51.012;-1.648;2023-04-15T05:54:12;16.10;;;8.10;;
71108;SDS011;59614;51.012;-1.648;2023-04-15T05:56:41;13.45;;;7.50;;
71108;SDS011;59614;51.012;-1.648;2023-04-15T05:59:06;14.18;;;7.70;;
71108;SDS011;59614;51.012;-1.648;2023-04-15T06:01:32;13.65;;;8.00;;
71108;SDS011;59614;51.012;-1.648;2023-04-15T06:03:59;12.52;;;6.78;;
71108;SDS011;59614;51.012;-1.648;2023-04-15T06:06:25;10.75;;;6.65;;
71108;SDS011;59614;51.012;-1.648;2023-04-15T06:08:51;10.27;;;6.68;;
71108;SDS011;59614;51.012;-1.648;2023-04-15T06:11:17;12.45;;;6.32;;
71108;SDS011;59614;51.012;-1.648;2023-04-15T06:13:42;9.35;;;6.53;;
71108;SDS011;59614;51.012;-1.648;2023-04-15T06:16:08;13.73;;;6.63;;
71108;SDS011;59614;51.012;-1.648;2023-04-15T06:18:34;10.48;;;5.95;;
71108;SDS011;59614;51.012;-1.648;2023-04-15T06:21:00;10.65;;;6.03;;
71108;SDS011;59614;51.012;-1.648;2023-04-15T06:23:25;10.00;;;5.63;;
71108;SDS011;59614;51.012;-1.648;2023-04-15T06:25:51;11.85;;;5.93;;
71108;SDS011;59614;51.012;-1.648;2023-04-15T06:28:16;10.20;;;5.22;;
71108;SDS011;59614;51.012;-1.648;2023-04-15T06:30:42;10.20;;;5.50;;
71108;SDS011;59614;51.012;-1.648;2023-04-15T06:33:07;14.88;;;5.55;;
71108;SDS011;59614;51.012;-1.648;2023-04-15T06:35:34;9.32;;;5.38;;
71108;SDS011;59614;51.012;-1.648;2023-04-15T06:37:59;12.35;;;5.20;;
71108;SDS011;59614;51.012;-1.648;2023-04-15T06:40:25;9.63;;;5.53;;
71108;SDS011;59614;51.012;-1.648;2023-04-15T06:42:50;10.23;;;5.72;;
71108;SDS011;59614;51.012;-1.648;2023-04-15T06:45:16;10.55;;;5.88;;
71108;SDS011;59614;51.012;-1.648;2023-04-15T06:47:41;10.85;;;5.68;;
71108;SDS011;59614;51.012;-1.648;2023-04-15T06:50:07;12.13;;;6.05;;
71108;SDS011;59614;51.012;-1.648;2023-04-15T06:52:34;10.27;;;5.80;;
71108;SDS011;59614;51.012;-1.648;2023-04-15T06:55:00;9.32;;;5.95;;
71108;SDS011;59614;51.012;-1.648;2023-04-15T06:57:26;8.13;;;5.50;;
71108;SDS011;59614;51.012;-1.648;2023-04-15T06:59:52;11.38;;;5.80;;
71108;SDS011;59614;51.012;-1.648;2023-04-15T07:02:18;7.43;;;5.25;;
71108;SDS011;59614;51.012;-1.648;2023-04-15T07:04:44;8.10;;;5.40;;
71108;SDS011;59614;51.012;-1.648;2023-04-15T07:07:10;7.55;;;5.38;;
71108;SDS011;59614;51.012;-1.648;2023-04-15T07:09:36;12.98;;;5.97;;
71108;SDS011;59614;51.012;-1.648;2023-04-15T07:12:01;11.77;;;5.93;;
71108;SDS011;59614;51.012;-1.648;2023-04-15T07:14:27;11.23;;;6.03;;
71108;SDS011;59614;51.012;-1.648;2023-04-15T07:16:53;10.55;;;6.15;;
71108;SDS011;59614;51.012;-1.648;2023-04-15T07:19:18;17.27;;;6.88;;
71108;SDS011;59614;51.012;-1.648;2023-04-15T07:21:44;12.55;;;6.45;;
